Aviation Digital Data Service (ADDS)

Output produced by METARs form (0109 UTC 19 December 2018)
found at http://aviationweather.gov/metar/data/
 
TAF EPDA 182300Z 1900/1909 15006KT 3000 BR BKN010 
     TEMPO 1900/1909 1500 BR BKN005 
     PROB40 
     TEMPO 1900/1907 0500 FG BKN002